Ashwaubenon, Wisconsin
Current Conditions -  °F | °C
As of 3:53 PM on Wednesday 26 Nov 2014 (Local Time) from KGRB Reporting Station
Haze Haze  
Wind Chill: 16°   Ceiling: Unl
Heat Index: 22°   Visibility: 5mi
Dew Point: 17°   Wind: 5mph
Humidity: 82%   Direction: 320°NW
Pressure: 30.18"   Gusts: NA
Location:  44.48°N, 88.07°W
Report Text: KGRB 262153Z 32004KT 5SM HZ CLR M06/M08 A3018 RMK AO2 SLP232 T10561083
Loading
Personal Weather Stations






























Interactive Weather Map New forecast layout! Learn more

10-Day Weather Forecast

Advertisements
Track Severe Weather on mobile